Time,TemperatureF,DewpointF,PressureIn,WindDirection,WindDirectionDegrees,WindSpeedMPH,WindSpeedGustMPH,Humidity,HourlyPrecipIn,Conditions,Clouds,dailyrainin,SolarRadiationWatts/m^2,SoftwareType,DateUTC
2014-01-31 00:12:00,2.0,-4.0,-100.00,NW,313,5.0,10.0,75,0.00,,,0.00,0.000000,,2014-01-31 06:12:00,
2014-01-31 00:24:00,2.0,-4.0,-100.00,NW,313,5.0,10.0,75,0.00,,,0.00,0.000000,,2014-01-31 06:24:00,
2014-01-31 00:32:00,2.0,-4.0,-100.00,NW,313,5.0,10.0,75,0.00,,,0.00,0.000000,,2014-01-31 06:32:00,
2014-01-31 01:11:00,-1.0,-7.0,-100.00,West,273,3.0,9.0,75,0.00,,,0.00,0.000000,,2014-01-31 07:11:00,
2014-01-31 01:22:00,-1.0,-7.0,-100.00,West,273,3.0,9.0,75,0.00,,,0.00,0.000000,,2014-01-31 07:22:00,
2014-01-31 01:32:00,-1.0,-7.0,-100.00,West,273,3.0,9.0,75,0.00,,,0.00,0.000000,,2014-01-31 07:32:00,
2014-01-31 02:12:00,-2.0,-9.0,-100.00,NNW,331,3.0,10.0,72,0.00,,,0.00,0.000000,,2014-01-31 08:12:00,
2014-01-31 02:22:00,-2.0,-9.0,-100.00,NNW,331,3.0,10.0,72,0.00,,,0.00,0.000000,,2014-01-31 08:22:00,
2014-01-31 02:32:00,-2.0,-9.0,-100.00,NNW,331,3.0,10.0,72,0.00,,,0.00,0.000000,,2014-01-31 08:32:00,
2014-01-31 03:11:00,-5.0,-12.0,-100.00,West,275,2.0,7.0,72,0.00,,,0.00,0.000000,,2014-01-31 09:11:00,
2014-01-31 03:22:00,-5.0,-12.0,-100.00,West,275,2.0,7.0,72,0.00,,,0.00,0.000000,,2014-01-31 09:22:00,
2014-01-31 03:33:00,-5.0,-12.0,-100.00,West,275,2.0,7.0,72,0.00,,,0.00,0.000000,,2014-01-31 09:33:00,
2014-01-31 04:12:00,-6.0,-13.0,-100.00,West,267,3.0,6.0,71,0.00,,,0.00,0.000000,,2014-01-31 10:12:00,
2014-01-31 04:23:00,-6.0,-13.0,-100.00,West,267,3.0,6.0,71,0.00,,,0.00,0.000000,,2014-01-31 10:23:00,
2014-01-31 04:33:00,-6.0,-13.0,-100.00,West,267,3.0,6.0,71,0.00,,,0.00,0.000000,,2014-01-31 10:33:00,
2014-01-31 05:12:00,-9.0,-16.0,-100.00,NW,309,2.0,6.0,72,0.00,,,0.00,0.000000,,2014-01-31 11:12:00,
2014-01-31 05:22:00,-9.0,-16.0,-100.00,NW,309,2.0,6.0,72,0.00,,,0.00,0.000000,,2014-01-31 11:22:00,
2014-01-31 05:33:00,-9.0,-16.0,-100.00,NW,309,2.0,6.0,72,0.00,,,0.00,0.000000,,2014-01-31 11:33:00,
2014-01-31 06:11:00,-10.0,-17.0,-100.00,WSW,257,1.0,6.0,71,0.00,,,0.00,0.000000,,2014-01-31 12:11:00,
2014-01-31 06:22:00,-10.0,-17.0,-100.00,WSW,257,1.0,6.0,71,0.00,,,0.00,0.000000,,2014-01-31 12:22:00,
2014-01-31 06:32:00,-10.0,-17.0,-100.00,WSW,257,1.0,6.0,71,0.00,,,0.00,0.000000,,2014-01-31 12:32:00,
2014-01-31 07:12:00,-12.0,-19.0,-100.00,North,-999,0.0,4.0,70,0.00,,,0.00,0.000000,,2014-01-31 13:12:00,
2014-01-31 07:22:00,-12.0,-19.0,-100.00,North,-999,0.0,4.0,70,0.00,,,0.00,0.000000,,2014-01-31 13:22:00,
2014-01-31 07:32:00,-12.0,-19.0,-100.00,North,-999,0.0,4.0,70,0.00,,,0.00,0.000000,,2014-01-31 13:32:00,
2014-01-31 08:11:00,-14.0,-21.0,-100.00,North,-999,0.0,3.0,69,0.00,,,0.00,3.000000,,2014-01-31 14:11:00,
2014-01-31 08:22:00,-14.0,-21.0,-100.00,North,-999,0.0,3.0,69,0.00,,,0.00,3.000000,,2014-01-31 14:22:00,
2014-01-31 08:32:00,-14.0,-21.0,-100.00,North,-999,0.0,3.0,69,0.00,,,0.00,3.000000,,2014-01-31 14:32:00,
2014-01-31 09:12:00,-11.0,-18.0,-100.00,North,-999,0.0,5.0,69,0.00,,,0.00,21.000000,,2014-01-31 15:12:00,
2014-01-31 09:22:00,-11.0,-18.0,-100.00,North,-999,0.0,5.0,69,0.00,,,0.00,21.000000,,2014-01-31 15:22:00,
2014-01-31 09:33:00,-11.0,-18.0,-100.00,North,-999,0.0,5.0,69,0.00,,,0.00,21.000000,,2014-01-31 15:33:00,
2014-01-31 10:13:00,-4.0,-15.0,-100.00,NW,317,3.0,10.0,58,0.00,,,0.00,214.000000,,2014-01-31 16:13:00,
2014-01-31 10:23:00,-4.0,-15.0,-100.00,NW,317,3.0,10.0,58,0.00,,,0.00,214.000000,,2014-01-31 16:23:00,
2014-01-31 10:32:00,-4.0,-15.0,-100.00,NW,317,3.0,10.0,58,0.00,,,0.00,214.000000,,2014-01-31 16:32:00,
2014-01-31 11:12:00,0.0,-13.0,-100.00,NW,320,4.0,9.0,53,0.00,,,0.00,386.000000,,2014-01-31 17:12:00,
2014-01-31 11:22:00,0.0,-13.0,-100.00,NW,320,4.0,9.0,53,0.00,,,0.00,386.000000,,2014-01-31 17:22:00,
2014-01-31 11:33:00,0.0,-13.0,-100.00,NW,320,4.0,9.0,53,0.00,,,0.00,386.000000,,2014-01-31 17:33:00,
2014-01-31 12:12:00,5.0,-10.0,-100.00,West,276,4.0,10.0,49,0.00,,,0.00,486.000000,,2014-01-31 18:12:00,
2014-01-31 12:22:00,5.0,-10.0,-100.00,West,276,4.0,10.0,49,0.00,,,0.00,486.000000,,2014-01-31 18:22:00,
2014-01-31 12:32:00,5.0,-10.0,-100.00,West,276,4.0,10.0,49,0.00,,,0.00,486.000000,,2014-01-31 18:32:00,
2014-01-31 13:12:00,5.0,-10.0,-100.00,WSW,247,5.0,12.0,49,0.00,,,0.00,528.000000,,2014-01-31 19:12:00,
2014-01-31 13:22:00,5.0,-10.0,-100.00,WSW,247,5.0,12.0,49,0.00,,,0.00,528.000000,,2014-01-31 19:22:00,
2014-01-31 13:32:00,5.0,-10.0,-100.00,WSW,247,5.0,12.0,49,0.00,,,0.00,528.000000,,2014-01-31 19:32:00,
2014-01-31 14:12:00,8.0,-7.0,-100.00,WSW,242,5.0,11.0,49,0.00,,,0.00,505.000000,,2014-01-31 20:12:00,
2014-01-31 14:22:00,8.0,-7.0,-100.00,WSW,242,5.0,11.0,49,0.00,,,0.00,505.000000,,2014-01-31 20:22:00,
2014-01-31 14:32:00,8.0,-7.0,-100.00,WSW,242,5.0,11.0,49,0.00,,,0.00,505.000000,,2014-01-31 20:32:00,
2014-01-31 15:11:00,8.0,-6.0,-100.00,WSW,244,6.0,12.0,52,0.00,,,0.00,413.000000,,2014-01-31 21:11:00,
2014-01-31 15:22:00,8.0,-6.0,-100.00,WSW,244,6.0,12.0,52,0.00,,,0.00,413.000000,,2014-01-31 21:22:00,
2014-01-31 15:34:00,8.0,-6.0,-100.00,WSW,244,6.0,12.0,52,0.00,,,0.00,413.000000,,2014-01-31 21:34:00,
2014-01-31 16:13:00,9.0,-5.0,-100.00,WSW,240,5.0,13.0,52,0.00,,,0.00,309.000000,,2014-01-31 22:13:00,
2014-01-31 16:23:00,9.0,-5.0,-100.00,WSW,240,5.0,13.0,52,0.00,,,0.00,309.000000,,2014-01-31 22:23:00,
2014-01-31 16:33:00,9.0,-5.0,-100.00,WSW,240,5.0,13.0,52,0.00,,,0.00,309.000000,,2014-01-31 22:33:00,
2014-01-31 17:11:00,4.0,-6.0,-100.00,SW,232,5.0,12.0,62,0.00,,,0.00,97.000000,,2014-01-31 23:11:00,
2014-01-31 17:22:00,4.0,-6.0,-100.00,SW,232,5.0,12.0,62,0.00,,,0.00,97.000000,,2014-01-31 23:22:00,
2014-01-31 17:33:00,4.0,-6.0,-100.00,SW,232,5.0,12.0,62,0.00,,,0.00,97.000000,,2014-01-31 23:33:00,
2014-01-31 18:12:00,-1.0,-8.0,-100.00,SW,231,2.0,6.0,71,0.00,,,0.00,5.000000,,2014-02-01 00:12:00,
2014-01-31 18:22:00,-1.0,-8.0,-100.00,SW,231,2.0,6.0,71,0.00,,,0.00,5.000000,,2014-02-01 00:22:00,
2014-01-31 18:32:00,-1.0,-8.0,-100.00,SW,231,2.0,6.0,71,0.00,,,0.00,5.000000,,2014-02-01 00:32:00,
2014-01-31 19:12:00,-2.0,-9.0,-100.00,SSE,163,1.0,5.0,72,0.00,,,0.00,0.000000,,2014-02-01 01:12:00,
2014-01-31 19:22:00,-2.0,-9.0,-100.00,SSE,163,1.0,5.0,72,0.00,,,0.00,0.000000,,2014-02-01 01:22:00,
2014-01-31 19:32:00,-2.0,-9.0,-100.00,SSE,163,1.0,5.0,72,0.00,,,0.00,0.000000,,2014-02-01 01:32:00,
2014-01-31 20:11:00,-5.0,-11.0,-100.00,North,-999,0.0,4.0,75,0.00,,,0.00,0.000000,,2014-02-01 02:11:00,
2014-01-31 20:22:00,-5.0,-11.0,-100.00,North,-999,0.0,4.0,75,0.00,,,0.00,0.000000,,2014-02-01 02:22:00,
2014-01-31 20:32:00,-5.0,-11.0,-100.00,North,-999,0.0,4.0,75,0.00,,,0.00,0.000000,,2014-02-01 02:32:00,
2014-01-31 21:12:00,-5.0,-11.0,-100.00,SW,215,1.0,5.0,74,0.00,,,0.00,0.000000,,2014-02-01 03:12:00,
2014-01-31 21:22:00,-5.0,-11.0,-100.00,SW,215,1.0,5.0,74,0.00,,,0.00,0.000000,,2014-02-01 03:22:00,
2014-01-31 21:33:00,-5.0,-11.0,-100.00,SW,215,1.0,5.0,74,0.00,,,0.00,0.000000,,2014-02-01 03:33:00,
2014-01-31 22:13:00,-7.0,-13.0,-100.00,North,-999,0.0,2.0,73,0.00,,,0.00,0.000000,,2014-02-01 04:13:00,
2014-01-31 22:24:00,-7.0,-13.0,-100.00,North,-999,0.0,2.0,73,0.00,,,0.00,0.000000,,2014-02-01 04:24:00,
2014-01-31 22:33:00,-7.0,-13.0,-100.00,North,-999,0.0,2.0,73,0.00,,,0.00,0.000000,,2014-02-01 04:33:00,
2014-01-31 23:12:00,-9.0,-14.0,-100.00,North,-999,0.0,2.0,76,0.00,,,0.00,0.000000,,2014-02-01 05:12:00,
2014-01-31 23:22:00,-9.0,-14.0,-100.00,North,-999,0.0,2.0,76,0.00,,,0.00,0.000000,,2014-02-01 05:22:00,
2014-01-31 23:32:00,-9.0,-14.0,-100.00,North,-999,0.0,2.0,76,0.00,,,0.00,0.000000,,2014-02-01 05:32:00,